Startpagina
METAR-TAF:

METAR-TAF

Vliegvelden :

Brussels Airport. Zaventem

Brussel, België

breedte: 50-54N, lengte: 004-32E, hoogte: 55 m

Actueel weer

Dit bericht is 35 minuten geleden gemaakt, om 20:50 UTC
Wind 3 kt uit het noordwesten
Temperatuur 8°C
Vochtigheid 81%
Druk 1037 hPa
Zicht 10 km of meer
geen wolken onder 1500 m en geen cumulonimbus

METAR: EBBR 242050Z 32003KT CAVOK 08/05 Q1037 NOSIG

Tijdstip: 23:25 (21:25 UTC)

Verwachting

Dit bericht is 4 uur en het 15 minuten geleden gemaakt, om 17:10 UTC
Verwachting geldig van 24 om 18 UTC tot 25 om 24 UTC
Wind 5 kt uit het noordwesten
Zicht 10 km of meer
Weinig wolken op 4500 ft
Kans 40% :
Tijdelijke
van 24 om 03 UTC tot 24 om 07 UTC
Zicht: 3500 m
nevel

TAF: EBBR 241710Z 2418/2524 32005KT 9999 FEW045 PROB40 TEMPO 2403/2407 3500 BR

Waarnemingen en weersverwachtingen van meer dan 4000 vliegvelden (METAR en TAF).

De beschikbare stations zijn de gele en rode punten op de kaart.

Ga met uw muis naar het station om de naam te zien.

Klik dan om waarnemingen en weersverwachtingen te zien.

kaart wijzigen: klik op de groene knoppen met een zwart kruis om in te zoomen, op de groene knop met een streepje om uit te zoomen of op de groene pijlen voor aangrenzende kaarten.


METAR-TAF: